Waskesiu Lake, Canada
Current Conditions -  °F | °C
As of 2:00 AM on Monday 20 Oct 2014 (Local Time) from CYPA Reporting Station
Clear Clear  
Wind Chill: 32°   Ceiling: Unl
Heat Index: 37°   Visibility: 15mi
Dew Point: 36°   Wind: 7mph
Humidity: 93%   Direction: 90°E
Pressure: 29.84"   Gusts: NA
Location:  53.92°N, 106.08°W
Report Text: CYPA 200800Z 09006KT 15SM SKC 03/02 A2984 RMK SLP117
Loading
Personal Weather Stations






























Interactive Weather Map
Tropical Storm Tracking
New forecast layout! Learn more

10-Day Weather Forecast

Advertisements
Track Severe Weather on mobile